KMBO

Bruce Campbell Field Airport

Madison, Mississippi, USA
METAR KMBO 161035Z AUTO 00000KT 5SM BR CLR M03/M03 A3026 RMK AO2
Observed Flight Rules
Dec-16 @ 10:35 UTC (30 minutes ago) Marginal Visual Flight Rules
Wind Visibility Clouds Conditions
Calm 5 miles
  • Clear skies
  • Mist
Temperatures Readings
Current -3°C / 27°F
Dewpoint -3°C / 27°F
Humidity 100%
Altimeter 30.26" Hg
Pressure 1025 hPa
Elevation 99
METAR KMBO 161035Z AUTO 00000KT 5SM BR CLR M03/M03 A3026 RMK AO2
Observed Flight Rules
Dec-16 @ 10:35 UTC
(30 minutes ago)
MVFR
Wind Visibility
Calm 5 miles
Clouds
  • Clear skies
Conditions
  • Mist
Temperature Dewpoint
-3°C / 27°F -3°C / 27°F
Humidity Altimeter Pressure
100% 30.26" Hg 1025 hPa